Time;durP1;ratioP1;P1;durP2;ratioP2;P2;SDS_P1;SDS_P2;PMS_P1;PMS_P2;Temp;Humidity;BMP_temperature;BMP_pressure;BME280_temperature;BME280_humidity;BME280_pressure;Samples;Min_cycle;Max_cycle;Signal;HPM_P1;HPM_P2
2021/07/12 00:00:19;;;;;;;5.90;5.10;;;23.60;99.50;;;;;;5070263;28;20773;-63
2021/07/12 00:02:46;;;;;;;5.20;4.90;;;23.60;99.80;;;;;;5072861;28;20474;-63
2021/07/12 00:05:15;;;;;;;6.20;5.70;;;23.50;99.90;;;;;;5073302;28;20466;-61
2021/07/12 00:07:42;;;;;;;5.07;4.77;;;23.50;99.90;;;;;;5073022;28;20462;-63
2021/07/12 00:10:16;;;;;;;6.40;6.00;;;23.50;99.90;;;;;;5072645;28;20473;-63
2021/07/12 00:12:45;;;;;;;6.00;5.60;;;23.50;99.90;;;;;;5072592;28;20477;-63
2021/07/12 00:15:15;;;;;;;5.93;5.43;;;23.50;99.90;;;;;;5072986;28;21061;-63
2021/07/12 00:17:42;;;;;;;5.60;5.20;;;23.40;99.90;;;;;;5072860;28;20470;-63
2021/07/12 00:20:11;;;;;;;5.93;5.43;;;23.40;99.90;;;;;;5072775;28;20466;-63
2021/07/12 00:22:38;;;;;;;7.77;7.10;;;23.40;99.90;;;;;;5072862;28;20478;-64
2021/07/12 00:25:07;;;;;;;10.87;10.17;;;23.40;99.90;;;;;;5071828;28;20479;-63
2021/07/12 00:27:36;;;;;;;11.90;10.90;;;23.40;99.90;;;;;;5072347;28;20470;-63
2021/07/12 00:30:05;;;;;;;15.60;14.30;;;23.40;99.90;;;;;;5072352;28;20960;-63
2021/07/12 00:32:32;;;;;;;18.73;17.10;;;23.40;99.90;;;;;;5072572;28;20470;-63
2021/07/12 00:34:59;;;;;;;17.33;15.83;;;23.30;99.90;;;;;;5072699;28;20524;-63
2021/07/12 00:37:26;;;;;;;14.73;13.53;;;23.30;99.90;;;;;;5072335;28;20462;-63
2021/07/12 00:39:53;;;;;;;16.37;14.90;;;23.30;99.90;;;;;;5072381;28;20520;-63
2021/07/12 00:42:20;;;;;;;17.00;15.50;;;23.30;99.90;;;;;;5072591;28;20466;-63
2021/07/12 00:44:48;;;;;;;17.00;15.50;;;23.30;99.90;;;;;;5071795;28;20462;-63
2021/07/12 00:47:15;;;;;;;15.80;14.43;;;23.30;99.90;;;;;;5059477;28;20461;-63
2021/07/12 00:49:42;;;;;;;15.87;14.37;;;23.30;99.90;;;;;;5072523;28;20532;-63
2021/07/12 00:52:09;;;;;;;17.93;16.43;;;23.30;99.90;;;;;;5072127;28;20874;-64
2021/07/12 00:54:36;;;;;;;18.53;16.77;;;23.30;99.90;;;;;;5072519;28;20786;-61
2021/07/12 00:57:06;;;;;;;15.30;14.10;;;23.30;99.90;;;;;;5072190;28;20470;-63
2021/07/12 00:59:35;;;;;;;11.80;10.80;;;23.20;99.90;;;;;;5069818;28;20848;-63
2021/07/12 01:02:04;;;;;;;9.63;8.73;;;23.20;99.90;;;;;;5071873;28;20879;-63
2021/07/12 01:04:31;;;;;;;8.10;7.50;;;23.20;99.90;;;;;;5072253;28;20535;-63
2021/07/12 01:06:58;;;;;;;17.23;15.67;;;23.20;99.90;;;;;;5072111;28;20478;-63
2021/07/12 01:09:25;;;;;;;16.07;14.73;;;23.10;99.90;;;;;;5072091;28;20473;-63
2021/07/12 01:12:02;;;;;;;19.67;18.10;;;23.10;99.90;;;;;;5072050;28;20479;-63
2021/07/12 01:14:40;;;;;;;15.83;14.43;;;23.10;99.90;;;;;;5072056;28;20470;-63
2021/07/12 01:17:17;;;;;;;14.23;13.13;;;23.10;99.90;;;;;;5071783;28;20557;-63
2021/07/12 01:20:08;;;;;;;13.67;12.73;;;23.10;99.90;;;;;;5060445;28;20472;-63
2021/07/12 01:22:59;;;;;;;19.47;18.07;;;23.10;99.90;;;;;;5071643;28;20501;-62
2021/07/12 01:26:05;;;;;;;18.10;16.83;;;23.10;99.90;;;;;;5071901;28;20462;-63
2021/07/12 01:29:03;;;;;;;12.40;11.40;;;23.10;99.90;;;;;;5071990;28;20462;-63
2021/07/12 01:32:04;;;;;;;10.33;9.63;;;23.10;99.90;;;;;;5071881;28;20590;-63
2021/07/12 01:34:41;;;;;;;10.10;9.40;;;23.00;99.90;;;;;;5069365;28;20466;-63
2021/07/12 01:37:15;;;;;;;8.90;8.30;;;23.10;99.90;;;;;;5073217;28;20469;-63
2021/07/12 01:39:48;;;;;;;8.67;8.17;;;23.00;99.90;;;;;;5076197;28;20530;-63
2021/07/12 01:42:22;;;;;;;7.03;6.63;;;23.00;99.90;;;;;;5062978;28;20847;-63
2021/07/12 01:44:58;;;;;;;7.23;6.73;;;23.00;99.90;;;;;;5074348;28;20472;-63
2021/07/12 01:47:34;;;;;;;7.10;6.60;;;23.10;99.90;;;;;;5064015;28;20549;-62
2021/07/12 01:50:05;;;;;;;7.03;6.63;;;23.00;99.90;;;;;;5075758;28;20549;-63
2021/07/12 01:52:42;;;;;;;6.90;6.40;;;23.10;99.90;;;;;;5075536;28;20983;-63
2021/07/12 01:55:16;;;;;;;6.57;6.17;;;23.10;99.90;;;;;;5075757;28;20944;-63
2021/07/12 01:57:52;;;;;;;5.97;5.67;;;23.10;99.90;;;;;;5075220;28;20497;-63
2021/07/12 02:00:20;;;;;;;6.47;5.97;;;23.00;99.90;;;;;;5066241;28;20820;-63
2021/07/12 02:02:51;;;;;;;6.30;5.90;;;23.00;99.90;;;;;;5075073;28;20549;-64
2021/07/12 02:05:21;;;;;;;5.53;5.13;;;23.10;99.90;;;;;;5075655;28;21021;-64
2021/07/12 02:07:50;;;;;;;5.57;5.27;;;23.00;99.90;;;;;;5074984;28;20987;-63
2021/07/12 02:10:20;;;;;;;6.70;6.30;;;23.10;99.90;;;;;;5075537;28;20477;-64
2021/07/12 02:12:50;;;;;;;6.80;6.27;;;23.00;99.90;;;;;;5073124;28;20549;-63
2021/07/12 02:15:18;;;;;;;5.83;5.53;;;23.10;99.90;;;;;;5075370;28;20505;-63
2021/07/12 02:17:47;;;;;;;5.80;5.50;;;23.10;99.90;;;;;;5074630;28;20485;-63
2021/07/12 02:20:16;;;;;;;6.97;6.50;;;23.10;99.90;;;;;;5075400;28;20462;-63
2021/07/12 02:22:48;;;;;;;6.70;6.20;;;23.00;99.90;;;;;;5064256;28;20470;-63
2021/07/12 02:25:16;;;;;;;8.93;8.20;;;23.10;99.90;;;;;;5075134;28;20539;-63
2021/07/12 02:27:45;;;;;;;9.10;8.30;;;23.00;99.90;;;;;;5074754;28;20557;-64
2021/07/12 02:30:13;;;;;;;7.97;7.37;;;23.00;99.90;;;;;;5075222;28;20478;-63
2021/07/12 02:32:41;;;;;;;7.23;6.60;;;23.00;99.90;;;;;;5074386;28;20491;-63
2021/07/12 02:35:11;;;;;;;7.40;6.90;;;23.00;99.90;;;;;;5075057;28;20597;-63
2021/07/12 02:37:40;;;;;;;7.00;6.63;;;23.00;99.90;;;;;;5074304;28;20470;-63
2021/07/12 02:40:12;;;;;;;6.40;6.00;;;23.00;99.90;;;;;;5074791;28;20466;-63
2021/07/12 02:42:41;;;;;;;7.27;6.77;;;23.00;99.90;;;;;;5062616;28;20470;-63
2021/07/12 02:45:09;;;;;;;6.17;5.87;;;23.00;99.90;;;;;;5072325;28;21012;-64
2021/07/12 02:47:37;;;;;;;8.53;7.93;;;23.00;99.90;;;;;;5061643;28;20482;-64
2021/07/12 02:50:05;;;;;;;7.87;7.17;;;23.00;99.90;;;;;;5074979;28;20947;-63
2021/07/12 02:52:38;;;;;;;7.90;7.40;;;23.00;99.90;;;;;;5074056;28;20470;-63
2021/07/12 02:55:06;;;;;;;6.40;6.00;;;22.90;99.90;;;;;;5074153;28;20462;-63
2021/07/12 02:57:34;;;;;;;6.80;6.40;;;22.90;99.90;;;;;;5072530;28;20532;-63
2021/07/12 03:00:01;;;;;;;7.00;6.60;;;22.90;99.90;;;;;;5070076;28;20812;-63
2021/07/12 03:02:28;;;;;;;7.30;6.70;;;22.80;99.90;;;;;;5073756;28;20478;-63
2021/07/12 03:04:55;;;;;;;7.33;6.93;;;22.80;99.90;;;;;;5073489;28;20480;-63
2021/07/12 03:07:27;;;;;;;6.70;6.30;;;22.80;99.90;;;;;;5074230;28;20466;-63
2021/07/12 03:09:57;;;;;;;5.90;5.50;;;22.80;99.90;;;;;;5073805;28;20469;-63
2021/07/12 03:12:30;;;;;;;7.10;6.60;;;22.80;99.90;;;;;;5074114;28;20483;-64
2021/07/12 03:15:07;;;;;;;7.27;6.77;;;22.80;99.90;;;;;;5073520;28;21024;-63
2021/07/12 03:17:40;;;;;;;6.40;6.00;;;22.80;99.90;;;;;;5073395;28;20478;-63
2021/07/12 03:20:10;;;;;;;6.43;6.03;;;22.80;99.90;;;;;;5074199;28;20490;-63
2021/07/12 03:22:38;;;;;;;7.37;6.87;;;22.80;99.90;;;;;;5072872;28;20474;-64
2021/07/12 03:25:07;;;;;;;7.37;6.87;;;22.80;99.90;;;;;;5074081;28;20463;-63
2021/07/12 03:27:35;;;;;;;6.63;6.23;;;22.80;99.90;;;;;;5073353;28;20678;-63
2021/07/12 03:30:06;;;;;;;7.67;7.13;;;22.80;99.90;;;;;;5073412;28;20466;-63
2021/07/12 03:32:34;;;;;;;7.07;6.67;;;22.80;99.90;;;;;;5073781;28;20524;-63
2021/07/12 03:35:03;;;;;;;8.43;7.83;;;22.80;99.90;;;;;;5073720;28;20615;-63
2021/07/12 03:37:31;;;;;;;7.97;7.47;;;22.80;99.90;;;;;;5072345;28;20470;-63
2021/07/12 03:40:06;;;;;;;8.87;8.13;;;22.80;99.90;;;;;;5073335;28;20478;-63
2021/07/12 03:42:35;;;;;;;7.97;7.47;;;22.80;99.90;;;;;;5073263;28;20465;-64
2021/07/12 03:45:02;;;;;;;9.90;9.00;;;22.80;99.90;;;;;;5070830;28;20842;-64
2021/07/12 03:47:32;;;;;;;8.60;7.90;;;22.80;99.90;;;;;;5073202;28;20831;-63
2021/07/12 03:50:05;;;;;;;8.83;8.00;;;22.80;99.90;;;;;;5073106;28;20462;-64
2021/07/12 03:52:40;;;;;;;9.10;8.30;;;22.80;99.90;;;;;;5073596;28;20492;-63
2021/07/12 03:55:08;;;;;;;7.77;7.17;;;22.70;99.90;;;;;;5073183;28;20458;-63
2021/07/12 03:57:35;;;;;;;8.97;8.17;;;22.70;99.90;;;;;;5073356;28;20993;-64
2021/07/12 04:00:02;;;;;;;7.90;7.40;;;22.70;99.90;;;;;;5068752;28;20458;-63
2021/07/12 04:02:30;;;;;;;7.43;6.90;;;22.70;99.90;;;;;;5072132;28;20477;-64
2021/07/12 04:04:57;;;;;;;8.00;7.50;;;22.70;99.90;;;;;;5072608;28;20466;-64
2021/07/12 04:07:24;;;;;;;9.70;8.93;;;22.70;99.90;;;;;;5073146;28;20542;-64
2021/07/12 04:09:50;;;;;;;8.50;7.90;;;22.70;99.90;;;;;;5072947;28;20872;-64
2021/07/12 04:12:23;;;;;;;8.17;7.67;;;22.70;99.90;;;;;;5072166;28;20462;-63
2021/07/12 04:14:50;;;;;;;9.80;8.90;;;22.80;99.90;;;;;;5071234;28;20459;-63
2021/07/12 04:17:17;;;;;;;10.13;9.00;;;22.70;99.90;;;;;;5070276;28;20465;-63
2021/07/12 04:19:45;;;;;;;9.07;8.47;;;22.70;99.90;;;;;;5071351;28;20474;-61
2021/07/12 04:22:15;;;;;;;8.33;7.80;;;22.70;99.90;;;;;;5072948;28;20815;-63
2021/07/12 04:24:42;;;;;;;8.50;8.00;;;22.70;99.90;;;;;;5072638;28;20944;-64
2021/07/12 04:27:09;;;;;;;8.70;8.10;;;22.70;99.90;;;;;;5072089;28;20511;-63
2021/07/12 04:29:36;;;;;;;9.97;9.17;;;22.70;99.90;;;;;;5072767;28;20474;-63
2021/07/12 04:32:03;;;;;;;8.43;7.83;;;22.70;99.90;;;;;;5072437;28;20477;-63
2021/07/12 04:34:31;;;;;;;8.50;8.00;;;22.70;99.90;;;;;;5071996;28;20470;-63
2021/07/12 04:36:59;;;;;;;8.23;7.73;;;22.70;99.90;;;;;;5070500;28;20478;-64
2021/07/12 04:39:26;;;;;;;8.73;8.00;;;22.80;99.90;;;;;;5072668;28;20470;-63
2021/07/12 04:41:53;;;;;;;7.83;7.33;;;22.80;99.90;;;;;;5072237;28;20482;-63
2021/07/12 04:44:20;;;;;;;7.60;7.00;;;22.70;99.90;;;;;;5065189;28;20498;-63
2021/07/12 04:46:47;;;;;;;8.10;7.60;;;22.70;99.90;;;;;;5050955;28;20980;-64
2021/07/12 04:49:14;;;;;;;7.00;6.60;;;22.70;99.90;;;;;;5050845;28;20467;-63
2021/07/12 04:51:44;;;;;;;8.00;7.50;;;22.80;99.90;;;;;;5052969;28;20533;-63
2021/07/12 04:54:12;;;;;;;7.40;6.80;;;22.80;99.90;;;;;;5052813;28;20896;-63
2021/07/12 04:56:39;;;;;;;7.00;6.60;;;22.80;99.90;;;;;;5052839;28;20478;-64
2021/07/12 04:59:08;;;;;;;8.40;7.87;;;22.80;99.90;;;;;;5051539;28;20459;-64
2021/07/12 05:01:36;;;;;;;7.90;7.40;;;22.90;99.90;;;;;;5070854;28;20473;-61
2021/07/12 05:04:05;;;;;;;7.73;7.23;;;22.90;99.90;;;;;;5070225;28;20485;-63
2021/07/12 05:06:32;;;;;;;8.17;7.60;;;22.90;99.90;;;;;;5070839;28;20466;-63
2021/07/12 05:09:00;;;;;;;7.60;7.10;;;22.90;99.90;;;;;;5070428;28;20473;-63
2021/07/12 05:11:30;;;;;;;7.70;7.17;;;22.90;99.90;;;;;;5070542;28;21105;-64
2021/07/12 05:13:58;;;;;;;7.73;7.23;;;22.90;99.90;;;;;;5072198;28;21013;-64
2021/07/12 05:16:25;;;;;;;7.77;7.27;;;22.90;99.90;;;;;;5072852;28;20520;-63
2021/07/12 05:18:52;;;;;;;8.20;7.70;;;23.00;99.90;;;;;;5072133;28;21024;-63
2021/07/12 05:21:19;;;;;;;8.63;8.10;;;23.00;99.90;;;;;;5072621;28;20458;-64
2021/07/12 05:23:46;;;;;;;8.10;7.40;;;22.90;99.90;;;;;;5072571;28;20470;-63
2021/07/12 05:26:13;;;;;;;7.20;6.80;;;23.00;99.90;;;;;;5072121;28;20462;-63
2021/07/12 05:28:42;;;;;;;8.03;7.53;;;23.00;99.90;;;;;;5072553;28;20603;-64
2021/07/12 05:31:09;;;;;;;8.07;7.57;;;23.00;99.90;;;;;;5072251;28;20463;-64
2021/07/12 05:33:36;;;;;;;8.70;8.00;;;23.00;99.90;;;;;;5072149;28;20477;-64
2021/07/12 05:36:04;;;;;;;7.67;7.23;;;23.00;99.90;;;;;;5064970;28;20536;-63
2021/07/12 05:38:31;;;;;;;8.77;8.20;;;23.00;99.90;;;;;;5052284;28;20467;-63
2021/07/12 05:40:58;;;;;;;9.53;8.93;;;23.00;99.90;;;;;;5051766;28;20537;-62
2021/07/12 05:43:24;;;;;;;10.00;9.40;;;23.00;99.90;;;;;;5053319;28;20534;-62
2021/07/12 05:45:53;;;;;;;8.60;8.00;;;23.00;99.90;;;;;;5071901;28;20474;-63
2021/07/12 05:48:20;;;;;;;9.47;8.70;;;23.00;99.90;;;;;;5072240;28;20718;-63
2021/07/12 05:50:47;;;;;;;7.60;7.10;;;23.00;99.90;;;;;;5072129;28;20604;-63
2021/07/12 05:53:15;;;;;;;7.50;7.00;;;23.00;99.90;;;;;;5071928;28;20462;-63
2021/07/12 05:55:42;;;;;;;9.67;8.97;;;23.00;99.90;;;;;;5072091;28;20476;-63
2021/07/12 05:58:09;;;;;;;8.60;8.00;;;23.00;99.90;;;;;;5071772;28;20474;-62
2021/07/12 06:00:36;;;;;;;21.87;9.50;;;23.00;99.90;;;;;;5059276;28;20494;-63
2021/07/12 06:03:05;;;;;;;9.33;8.53;;;23.00;99.90;;;;;;5051467;28;20481;-62
2021/07/12 06:05:32;;;;;;;9.17;8.27;;;23.00;99.90;;;;;;5052197;28;20464;-63
2021/07/12 06:07:59;;;;;;;13.53;9.43;;;23.00;99.90;;;;;;5051632;28;20479;-63
2021/07/12 06:10:26;;;;;;;10.13;9.03;;;23.00;99.90;;;;;;5051890;28;20470;-63
2021/07/12 06:12:53;;;;;;;7.93;7.43;;;23.00;99.90;;;;;;5051708;28;20456;-63
2021/07/12 06:15:20;;;;;;;9.27;8.67;;;23.00;99.90;;;;;;5066162;28;20470;-63
2021/07/12 06:17:47;;;;;;;9.90;9.10;;;23.00;99.90;;;;;;5071821;28;20505;-63
2021/07/12 06:20:18;;;;;;;9.03;8.40;;;23.00;99.90;;;;;;5071657;28;20470;-63
2021/07/12 06:22:45;;;;;;;9.90;8.93;;;23.10;99.90;;;;;;5071978;28;20474;-63
2021/07/12 06:25:13;;;;;;;8.73;8.13;;;23.10;99.90;;;;;;5075186;28;20862;-63
2021/07/12 06:27:40;;;;;;;9.37;8.67;;;23.10;99.90;;;;;;5075413;28;20524;-63
2021/07/12 06:30:09;;;;;;;10.03;9.43;;;23.20;99.90;;;;;;5075061;28;20470;-64
2021/07/12 06:32:36;;;;;;;9.40;8.70;;;23.20;99.90;;;;;;5075211;28;20463;-63
2021/07/12 06:35:03;;;;;;;9.83;9.13;;;23.20;99.90;;;;;;5075014;28;20462;-64
2021/07/12 06:37:32;;;;;;;9.53;8.73;;;23.20;99.90;;;;;;5056062;28;20466;-64
2021/07/12 06:39:59;;;;;;;9.47;8.73;;;23.20;99.90;;;;;;5054745;28;20533;-63
2021/07/12 06:42:26;;;;;;;10.30;9.37;;;23.20;99.90;;;;;;5055314;28;20544;-64
2021/07/12 06:44:57;;;;;;;11.37;10.67;;;23.10;99.90;;;;;;5068497;28;20470;-63
2021/07/12 06:47:25;;;;;;;11.27;10.47;;;23.10;99.90;;;;;;5074673;28;20546;-63
2021/07/12 06:49:52;;;;;;;12.20;11.20;;;23.10;99.90;;;;;;5075161;28;20885;-64
2021/07/12 06:52:19;;;;;;;11.53;10.43;;;23.10;99.90;;;;;;5074700;28;20467;-64
2021/07/12 06:54:48;;;;;;;11.07;9.87;;;23.10;99.90;;;;;;5075129;28;20462;-63
2021/07/12 06:57:15;;;;;;;11.07;10.37;;;23.10;99.90;;;;;;5074638;28;20975;-64
2021/07/12 06:59:43;;;;;;;10.00;9.23;;;23.20;99.90;;;;;;5069319;28;20471;-63
2021/07/12 07:02:10;;;;;;;10.77;9.97;;;23.30;99.90;;;;;;5054463;28;20463;-63
2021/07/12 07:04:37;;;;;;;9.90;9.10;;;23.50;99.90;;;;;;5054779;28;20467;-64
2021/07/12 07:07:07;;;;;;;11.10;10.03;;;23.70;99.90;;;;;;5054440;28;20471;-63
2021/07/12 07:09:35;;;;;;;9.40;8.90;;;23.90;99.90;;;;;;5054667;28;20550;-61
2021/07/12 07:12:04;;;;;;;8.10;7.40;;;24.10;99.90;;;;;;5054439;28;20857;-61
2021/07/12 07:14:31;;;;;;;8.60;8.10;;;24.30;99.90;;;;;;5062244;28;20481;-61
2021/07/12 07:16:57;;;;;;;9.23;8.63;;;24.50;99.90;;;;;;5074556;28;20467;-62
2021/07/12 07:19:24;;;;;;;8.43;7.73;;;24.60;99.90;;;;;;5073967;28;20466;-63
2021/07/12 07:21:54;;;;;;;8.30;7.60;;;24.60;99.90;;;;;;5074666;28;20466;-62
2021/07/12 07:24:21;;;;;;;7.63;7.13;;;24.70;99.90;;;;;;5073639;28;20997;-62
2021/07/12 07:26:48;;;;;;;9.10;8.40;;;24.70;99.90;;;;;;5074737;28;20831;-62
2021/07/12 07:29:17;;;;;;;8.67;8.00;;;24.70;99.90;;;;;;5074119;28;20470;-62
2021/07/12 07:31:45;;;;;;;7.80;7.20;;;24.80;99.90;;;;;;5074272;28;20470;-62
2021/07/12 07:34:12;;;;;;;9.23;7.70;;;24.80;99.90;;;;;;5073537;28;20466;-63
2021/07/12 07:36:39;;;;;;;7.47;6.93;;;24.80;99.90;;;;;;5062366;28;20840;-62
2021/07/12 07:39:07;;;;;;;7.70;7.10;;;24.80;99.90;;;;;;5053655;28;20471;-63
2021/07/12 07:41:36;;;;;;;9.10;8.40;;;24.90;99.90;;;;;;5054294;28;20801;-63
2021/07/12 07:44:04;;;;;;;10.07;9.20;;;25.00;99.90;;;;;;5060322;28;20470;-63
2021/07/12 07:46:32;;;;;;;8.30;7.60;;;25.00;99.90;;;;;;5073596;28;20461;-63
2021/07/12 07:48:59;;;;;;;10.33;9.20;;;25.10;99.90;;;;;;5073816;28;20470;-62
2021/07/12 07:51:26;;;;;;;9.43;8.73;;;25.10;99.90;;;;;;5073380;28;20545;-62
2021/07/12 07:53:53;;;;;;;9.50;8.93;;;25.20;99.90;;;;;;5074032;28;20496;-63
2021/07/12 07:56:20;;;;;;;8.53;7.93;;;25.40;99.90;;;;;;5073488;28;20608;-63
2021/07/12 07:58:47;;;;;;;8.00;7.30;;;25.60;99.90;;;;;;5073473;28;20488;-63
2021/07/12 08:01:15;;;;;;;7.57;7.07;;;25.70;99.90;;;;;;5054937;28;20988;-62
2021/07/12 08:03:44;;;;;;;9.23;8.53;;;25.70;99.90;;;;;;5053550;28;21005;-63
2021/07/12 08:06:10;;;;;;;10.67;7.07;;;25.80;99.90;;;;;;5053090;28;20475;-62
2021/07/12 08:08:37;;;;;;;7.47;7.07;;;25.70;99.90;;;;;;5053692;28;20536;-62
2021/07/12 08:11:04;;;;;;;7.67;7.17;;;25.80;99.90;;;;;;5053477;28;20463;-62
2021/07/12 08:13:31;;;;;;;7.30;6.90;;;25.80;99.90;;;;;;5053215;28;20482;-62
2021/07/12 08:15:58;;;;;;;7.47;6.77;;;26.00;99.90;;;;;;5073103;28;20477;-63
2021/07/12 08:18:25;;;;;;;8.03;7.43;;;26.10;99.90;;;;;;5072757;28;20473;-63
2021/07/12 08:20:53;;;;;;;6.63;6.20;;;26.40;99.90;;;;;;5073346;28;20745;-63
2021/07/12 08:23:20;;;;;;;7.77;7.30;;;26.70;99.90;;;;;;5072471;28;20945;-64
2021/07/12 08:25:47;;;;;;;6.97;6.57;;;27.00;99.30;;;;;;5073396;28;20462;-64
2021/07/12 08:28:14;;;;;;;6.43;5.97;;;27.20;98.70;;;;;;5072959;28;20482;-62
2021/07/12 08:30:42;;;;;;;8.60;8.00;;;27.40;97.70;;;;;;5073352;28;20458;-63
2021/07/12 08:33:09;;;;;;;7.13;6.53;;;27.60;97.30;;;;;;5072905;28;20470;-63
2021/07/12 08:35:36;;;;;;;8.63;8.03;;;27.80;96.50;;;;;;5072381;28;21098;-61
2021/07/12 08:38:05;;;;;;;10.40;7.90;;;27.80;96.20;;;;;;5073195;28;20471;-62
2021/07/12 08:40:33;;;;;;;10.40;7.53;;;27.90;95.60;;;;;;5072443;28;20524;-62
2021/07/12 08:43:01;;;;;;;9.20;8.60;;;28.00;95.60;;;;;;5068663;28;20976;-63
2021/07/12 08:45:29;;;;;;;10.77;9.97;;;28.00;95.40;;;;;;5070343;28;20971;-62
2021/07/12 08:47:56;;;;;;;11.80;9.63;;;28.10;95.20;;;;;;5072992;28;20482;-63
2021/07/12 08:50:28;;;;;;;9.50;9.00;;;28.10;95.20;;;;;;5072450;28;20842;-63
2021/07/12 08:52:56;;;;;;;10.27;9.47;;;28.00;95.30;;;;;;5072914;28;20466;-63
2021/07/12 08:55:24;;;;;;;10.17;9.37;;;28.00;95.10;;;;;;5072622;28;20474;-62
2021/07/12 08:57:59;;;;;;;12.13;10.83;;;28.00;95.00;;;;;;5072787;28;20471;-62
2021/07/12 09:00:38;;;;;;;12.33;11.30;;;27.90;94.90;;;;;;5072516;28;20462;-62
2021/07/12 09:03:24;;;;;;;10.93;10.20;;;27.80;95.00;;;;;;5072574;28;20470;-63
2021/07/12 09:06:03;;;;;;;10.53;9.63;;;27.80;95.20;;;;;;5073081;28;20469;-63
2021/07/12 09:08:35;;;;;;;10.60;9.80;;;27.90;95.20;;;;;;5072960;28;20466;-62
2021/07/12 09:11:09;;;;;;;11.20;10.50;;;27.80;95.00;;;;;;5072498;28;20842;-63
2021/07/12 09:13:44;;;;;;;11.50;10.50;;;27.70;95.00;;;;;;5072586;28;20470;-63
2021/07/12 09:16:34;;;;;;;10.00;9.30;;;27.70;95.20;;;;;;5052343;28;21255;-63
2021/07/12 09:19:10;;;;;;;9.60;9.00;;;27.80;94.80;;;;;;5052029;28;20476;-62
2021/07/12 09:21:39;;;;;;;9.33;8.63;;;27.80;94.90;;;;;;5052609;28;20475;-63
2021/07/12 09:24:28;;;;;;;10.27;9.43;;;27.90;94.80;;;;;;5051792;28;20467;-63
2021/07/12 09:27:00;;;;;;;10.10;9.10;;;27.90;94.50;;;;;;5049618;28;20844;-62
2021/07/12 09:29:29;;;;;;;10.40;9.73;;;27.90;94.60;;;;;;5052384;28;20471;-63
2021/07/12 09:31:57;;;;;;;10.90;10.10;;;27.80;94.70;;;;;;5052105;28;20475;-63
2021/07/12 09:34:25;;;;;;;10.57;9.57;;;27.80;95.30;;;;;;5069140;28;20465;-64
2021/07/12 09:36:53;;;;;;;10.63;9.93;;;27.70;94.90;;;;;;5071658;28;20516;-63
2021/07/12 09:39:22;;;;;;;10.03;9.27;;;27.60;94.80;;;;;;5072432;28;20473;-63
2021/07/12 09:41:50;;;;;;;11.00;10.30;;;27.60;95.00;;;;;;5071953;28;20520;-62
2021/07/12 09:44:20;;;;;;;10.83;10.13;;;27.60;95.00;;;;;;5065980;28;20462;-63
2021/07/12 09:46:47;;;;;;;9.50;8.87;;;27.50;95.00;;;;;;5072450;28;20466;-61
2021/07/12 09:49:16;;;;;;;9.23;8.70;;;27.40;95.00;;;;;;5071953;28;20541;-64
2021/07/12 09:51:43;;;;;;;9.40;8.80;;;27.40;95.10;;;;;;5072378;28;20474;-64
2021/07/12 09:54:22;;;;;;;10.20;9.30;;;27.40;95.10;;;;;;5071978;28;20466;-63
2021/07/12 09:56:51;;;;;;;10.03;9.13;;;27.40;95.20;;;;;;5072428;28;20485;-63
2021/07/12 09:59:20;;;;;;;9.87;9.03;;;27.40;95.40;;;;;;5074581;28;20465;-63
2021/07/12 10:01:50;;;;;;;8.97;8.37;;;27.50;95.50;;;;;;5076000;28;20521;-62
2021/07/12 10:04:17;;;;;;;10.60;9.60;;;27.50;95.20;;;;;;5075660;28;20936;-63
2021/07/12 10:06:46;;;;;;;9.40;8.70;;;27.50;94.90;;;;;;5075947;28;20845;-63
2021/07/12 10:09:14;;;;;;;9.83;9.20;;;27.60;95.00;;;;;;5075377;28;20466;-63
2021/07/12 10:11:44;;;;;;;13.20;9.57;;;27.60;94.90;;;;;;5075956;28;20544;-63
2021/07/12 10:14:12;;;;;;;9.57;8.87;;;27.70;94.50;;;;;;5075405;28;20537;-63
2021/07/12 10:16:40;;;;;;;10.40;9.50;;;27.60;94.70;;;;;;5075692;28;20469;-63
2021/07/12 10:19:14;;;;;;;9.00;8.50;;;27.60;94.90;;;;;;5075266;28;20470;-63
2021/07/12 10:21:47;;;;;;;8.40;7.90;;;27.70;95.00;;;;;;5075702;28;20466;-63
2021/07/12 10:24:15;;;;;;;9.30;8.50;;;27.80;94.80;;;;;;5075086;28;20560;-63
2021/07/12 10:26:57;;;;;;;8.57;8.07;;;28.00;94.70;;;;;;5075379;28;20469;-63
2021/07/12 10:29:30;;;;;;;8.43;7.87;;;28.00;94.40;;;;;;5075378;28;20506;-63
2021/07/12 10:32:02;;;;;;;8.47;7.67;;;28.10;94.20;;;;;;5075572;28;20470;-63
2021/07/12 10:34:31;;;;;;;8.73;8.10;;;28.20;94.30;;;;;;5075036;28;21248;-62
2021/07/12 10:37:01;;;;;;;8.17;7.57;;;28.20;94.40;;;;;;5074678;28;20481;-63
2021/07/12 10:40:08;;;;;;;8.47;7.90;;;28.10;94.10;;;;;;5074825;28;20531;-63
2021/07/12 10:42:54;;;;;;;8.80;7.80;;;28.00;94.10;;;;;;5074223;28;20515;-63
2021/07/12 10:45:41;;;;;;;8.33;7.77;;;27.90;94.30;;;;;;5071921;28;20462;-63
2021/07/12 10:48:12;;;;;;;9.17;8.57;;;27.80;94.50;;;;;;5075010;28;20467;-63
2021/07/12 10:50:54;;;;;;;10.67;9.77;;;27.80;94.50;;;;;;5074952;28;20450;-63
2021/07/12 10:53:38;;;;;;;9.27;8.67;;;27.80;94.50;;;;;;5074776;28;20789;-64
2021/07/12 10:56:14;;;;;;;8.30;7.80;;;27.80;94.70;;;;;;5075171;28;20512;-62
2021/07/12 10:58:48;;;;;;;8.90;8.40;;;27.80;94.80;;;;;;5074619;28;21084;-63
2021/07/12 11:01:41;;;;;;;9.87;9.13;;;27.70;95.10;;;;;;5074973;28;20480;-63
2021/07/12 11:04:41;;;;;;;9.63;8.93;;;27.70;95.20;;;;;;5074646;28;20466;-63
2021/07/12 11:07:11;;;;;;;9.50;8.90;;;27.70;95.40;;;;;;5074321;28;20863;-63
2021/07/12 11:10:00;;;;;;;9.87;9.17;;;27.70;95.60;;;;;;5074310;28;20465;-63
2021/07/12 11:12:36;;;;;;;9.80;9.00;;;27.70;95.70;;;;;;5068252;28;21288;-62
2021/07/12 11:15:18;;;;;;;10.07;9.30;;;27.70;95.70;;;;;;5067820;28;20466;-63
2021/07/12 11:17:53;;;;;;;12.20;10.23;;;27.70;95.80;;;;;;5071739;28;20493;-62
2021/07/12 11:20:57;;;;;;;10.43;9.43;;;27.70;96.00;;;;;;5053900;28;20463;-63
2021/07/12 11:23:47;;;;;;;10.57;9.83;;;27.70;96.20;;;;;;5053820;28;20463;-62
2021/07/12 11:26:49;;;;;;;11.33;10.27;;;27.70;96.10;;;;;;5053965;28;20542;-63
2021/07/12 11:29:40;;;;;;;10.60;9.70;;;27.80;96.00;;;;;;5053803;28;20510;-62
2021/07/12 11:32:17;;;;;;;10.83;10.13;;;27.70;95.80;;;;;;5054031;28;20970;-62
2021/07/12 11:34:53;;;;;;;10.67;9.87;;;27.70;96.00;;;;;;5072658;28;20533;-63
2021/07/12 11:37:26;;;;;;;11.30;10.53;;;27.70;96.10;;;;;;5052808;28;20466;-61
2021/07/12 11:39:55;;;;;;;10.80;10.00;;;27.60;96.40;;;;;;5053549;28;20760;-62
2021/07/12 11:42:33;;;;;;;11.27;10.37;;;27.50;96.40;;;;;;5053350;28;20522;-63
2021/07/12 11:45:04;;;;;;;10.80;10.00;;;27.60;96.50;;;;;;5073858;28;20474;-63
2021/07/12 11:47:33;;;;;;;10.93;10.20;;;27.60;96.60;;;;;;5073531;28;20462;-63
2021/07/12 11:50:04;;;;;;;10.63;9.43;;;27.50;97.10;;;;;;5071160;28;20471;-63
2021/07/12 11:52:33;;;;;;;10.27;9.67;;;27.50;97.50;;;;;;5053757;28;20896;-64
2021/07/12 11:55:15;;;;;;;10.10;9.20;;;27.60;97.50;;;;;;5061701;28;20872;-63
2021/07/12 11:57:43;;;;;;;11.37;10.37;;;27.70;97.60;;;;;;5058112;28;21371;-63
2021/07/12 12:00:13;;;;;;;10.47;9.77;;;27.70;97.50;;;;;;5060231;28;20493;-63
2021/07/12 12:02:40;;;;;;;9.80;9.20;;;27.80;97.40;;;;;;5055489;28;20463;-63
2021/07/12 12:05:09;;;;;;;11.83;10.83;;;27.90;97.00;;;;;;5062224;28;20466;-63
2021/07/12 12:07:40;;;;;;;10.53;9.83;;;27.90;96.90;;;;;;5065220;28;20475;-63
2021/07/12 12:10:11;;;;;;;9.47;8.50;;;28.00;96.20;;;;;;5061867;28;20531;-63
2021/07/12 12:12:41;;;;;;;9.20;8.60;;;27.90;95.60;;;;;;5059900;28;20474;-63
2021/07/12 12:15:12;;;;;;;10.77;9.97;;;28.00;95.60;;;;;;5059235;28;20484;-63
2021/07/12 12:17:43;;;;;;;10.33;9.67;;;28.00;95.30;;;;;;5054564;28;20486;-63
2021/07/12 12:20:22;;;;;;;9.50;8.97;;;28.00;95.50;;;;;;5059384;28;20478;-63
2021/07/12 12:23:20;;;;;;;9.83;9.23;;;28.00;95.60;;;;;;5057644;28;20459;-63
2021/07/12 12:25:52;;;;;;;10.17;9.40;;;28.00;95.40;;;;;;5052469;28;20507;-63
2021/07/12 12:28:31;;;;;;;10.23;9.53;;;28.00;95.30;;;;;;5059144;28;20475;-63
2021/07/12 12:31:05;;;;;;;11.13;10.43;;;28.10;95.20;;;;;;5052891;28;20465;-63
2021/07/12 12:33:34;;;;;;;10.00;9.40;;;28.10;95.60;;;;;;5066479;28;20497;-63
2021/07/12 12:36:04;;;;;;;10.43;9.73;;;28.20;95.50;;;;;;5057961;28;21690;-63
2021/07/12 12:38:32;;;;;;;9.93;9.20;;;28.20;95.30;;;;;;5058225;28;20584;-63
2021/07/12 12:41:02;;;;;;;10.20;9.33;;;28.20;94.90;;;;;;5062290;28;20880;-64
2021/07/12 12:43:30;;;;;;;9.47;8.67;;;28.20;94.90;;;;;;5057686;28;20471;-63
2021/07/12 12:46:04;;;;;;;10.50;9.80;;;28.30;95.30;;;;;;5055044;28;20482;-63
2021/07/12 12:48:36;;;;;;;12.17;11.17;;;28.30;94.90;;;;;;5054631;28;20821;-63
2021/07/12 12:51:22;;;;;;;11.10;10.20;;;28.30;94.60;;;;;;5071821;28;20572;-64
2021/07/12 12:54:15;;;;;;;10.23;9.33;;;28.30;94.30;;;;;;5072729;28;20471;-63
2021/07/12 12:56:50;;;;;;;9.50;8.90;;;28.30;94.30;;;;;;5049566;28;20454;-63
2021/07/12 12:59:18;;;;;;;10.27;9.57;;;28.30;94.10;;;;;;5068727;28;20469;-63